Time;durP1;ratioP1;P1;durP2;ratioP2;P2;SDS_P1;SDS_P2;PMS_P1;PMS_P2;Temp;Humidity;BMP_temperature;BMP_pressure;BME280_temperature;BME280_humidity;BME280_pressure;Samples;Min_cycle;Max_cycle;Signal;HPM_P1;HPM_P2
2023/06/29 00:01:10;;;;;;;2.85;2.30;;;23.70;77.40;;;;;;6208085;28;87983;-72
2023/06/29 00:04:21;;;;;;;4.70;2.67;;;23.70;77.40;;;;;;6186628;28;88976;-72
2023/06/29 00:07:25;;;;;;;4.00;2.60;;;23.70;77.40;;;;;;6184018;28;89304;-72
2023/06/29 00:10:28;;;;;;;4.03;2.80;;;23.70;77.40;;;;;;6188428;28;89001;-72
2023/06/29 00:13:31;;;;;;;4.00;2.70;;;23.70;77.40;;;;;;6197963;28;88012;-72
2023/06/29 00:16:33;;;;;;;3.35;2.50;;;23.60;77.40;;;;;;6205026;28;88722;-72
2023/06/29 00:19:36;;;;;;;4.72;2.88;;;23.60;77.40;;;;;;6203784;28;89233;-71
2023/06/29 00:22:40;;;;;;;4.45;3.00;;;23.60;77.40;;;;;;6195530;28;89254;-72
2023/06/29 00:25:44;;;;;;;3.13;2.50;;;23.60;77.40;;;;;;6196427;28;89979;-71
2023/06/29 00:28:46;;;;;;;2.90;2.47;;;23.60;77.40;;;;;;6183113;28;90675;-71
2023/06/29 00:31:48;;;;;;;2.80;2.35;;;23.70;77.50;;;;;;6184134;28;89038;-72
2023/06/29 00:34:52;;;;;;;2.60;2.40;;;23.60;77.40;;;;;;6191039;28;88697;-72
2023/06/29 00:37:54;;;;;;;2.85;2.55;;;23.60;77.40;;;;;;6193484;28;89185;-72
2023/06/29 00:40:56;;;;;;;3.22;2.60;;;23.60;77.30;;;;;;6200903;28;89061;-71
2023/06/29 00:43:58;;;;;;;3.15;2.78;;;23.60;77.30;;;;;;6200671;28;89445;-72
2023/06/29 00:47:00;;;;;;;3.58;2.60;;;23.60;77.30;;;;;;6205820;28;88907;-72
2023/06/29 00:50:04;;;;;;;3.22;2.55;;;23.60;77.30;;;;;;6192327;28;89008;-72
2023/06/29 00:53:07;;;;;;;2.58;2.38;;;23.60;77.30;;;;;;6197428;28;89573;-73
2023/06/29 00:56:09;;;;;;;3.15;2.78;;;23.60;77.40;;;;;;6198822;28;89937;-72
2023/06/29 00:59:11;;;;;;;4.00;3.10;;;23.60;77.40;;;;;;6191495;28;88935;-72
2023/06/29 01:02:14;;;;;;;3.80;3.03;;;23.60;77.40;;;;;;6211123;28;87909;-71
2023/06/29 01:05:17;;;;;;;3.75;2.60;;;23.60;77.40;;;;;;6220734;28;89248;-72
2023/06/29 01:08:26;;;;;;;3.72;2.80;;;23.60;77.50;;;;;;6213745;28;89152;-72
2023/06/29 01:11:28;;;;;;;4.43;3.13;;;23.60;77.60;;;;;;6217414;28;89170;-72
2023/06/29 01:14:33;;;;;;;4.32;2.88;;;23.50;77.50;;;;;;6199031;28;89112;-73
2023/06/29 01:17:39;;;;;;;4.38;2.90;;;23.50;77.50;;;;;;6201355;28;88712;-71
2023/06/29 01:20:42;;;;;;;3.05;2.70;;;23.60;77.60;;;;;;6199362;28;89107;-72
2023/06/29 01:23:46;;;;;;;3.08;2.75;;;23.60;77.60;;;;;;6209194;28;89154;-72
2023/06/29 01:26:50;;;;;;;3.78;2.97;;;23.50;77.50;;;;;;6202735;28;90050;-72
2023/06/29 01:29:55;;;;;;;3.10;2.80;;;23.60;77.50;;;;;;6191117;28;89067;-71
2023/06/29 01:32:57;;;;;;;3.63;2.67;;;23.50;77.60;;;;;;6198932;28;90605;-72
2023/06/29 01:36:04;;;;;;;3.38;2.75;;;23.50;77.60;;;;;;6198241;28;89016;-72
2023/06/29 01:39:13;;;;;;;4.43;3.03;;;23.50;77.50;;;;;;6224894;28;89505;-72
2023/06/29 01:42:17;;;;;;;4.70;3.08;;;23.50;77.40;;;;;;6192065;28;89045;-72
2023/06/29 01:45:21;;;;;;;3.35;2.90;;;23.50;77.40;;;;;;6208880;28;89120;-72
2023/06/29 01:48:24;;;;;;;4.15;2.70;;;23.50;77.40;;;;;;6212618;28;88463;-72
2023/06/29 01:51:26;;;;;;;3.42;2.63;;;23.50;77.40;;;;;;6196788;28;87929;-72
2023/06/29 01:54:28;;;;;;;4.55;3.05;;;23.50;77.40;;;;;;6190575;28;89230;-72
2023/06/29 01:57:32;;;;;;;4.30;2.58;;;23.40;77.30;;;;;;6203735;28;90190;-72
2023/06/29 02:00:34;;;;;;;4.10;2.88;;;23.40;77.20;;;;;;6217393;28;88951;-72
2023/06/29 02:03:36;;;;;;;4.38;2.70;;;23.50;77.30;;;;;;6202247;28;90870;-72
2023/06/29 02:06:37;;;;;;;3.78;2.72;;;23.40;77.30;;;;;;6193444;28;89107;-72
2023/06/29 02:09:40;;;;;;;3.30;2.55;;;23.40;77.30;;;;;;6182169;28;88204;-73
2023/06/29 02:12:43;;;;;;;3.25;2.60;;;23.40;77.40;;;;;;6200145;28;88002;-73
2023/06/29 02:15:45;;;;;;;2.60;2.40;;;23.40;77.40;;;;;;6195889;28;89512;-72
2023/06/29 02:18:47;;;;;;;4.07;3.13;;;23.40;77.40;;;;;;6191294;28;88316;-72
2023/06/29 02:21:49;;;;;;;3.00;2.70;;;23.40;77.30;;;;;;6196526;28;89054;-73
2023/06/29 02:24:51;;;;;;;2.80;2.50;;;23.40;77.20;;;;;;6202368;28;89989;-73
2023/06/29 02:27:54;;;;;;;2.92;2.50;;;23.40;77.10;;;;;;6211595;28;90338;-72
2023/06/29 02:30:56;;;;;;;3.30;2.58;;;23.40;77.10;;;;;;6182478;28;89085;-72
2023/06/29 02:33:58;;;;;;;3.50;2.92;;;23.40;77.10;;;;;;6193278;28;89563;-72
2023/06/29 02:37:00;;;;;;;3.08;2.70;;;23.40;77.10;;;;;;6192422;28;89241;-72
2023/06/29 02:40:02;;;;;;;4.20;3.00;;;23.40;77.10;;;;;;6201674;28;89031;-72
2023/06/29 02:43:05;;;;;;;2.90;2.70;;;23.40;77.10;;;;;;6199769;28;89126;-72
2023/06/29 02:46:08;;;;;;;3.83;2.83;;;23.40;77.10;;;;;;6203719;28;89052;-72
2023/06/29 02:49:11;;;;;;;3.47;2.95;;;23.40;77.10;;;;;;6197438;28;88364;-72
2023/06/29 02:52:13;;;;;;;4.05;2.85;;;23.40;77.10;;;;;;6211072;28;88040;-72
2023/06/29 02:55:15;;;;;;;3.53;2.78;;;23.30;77.00;;;;;;6207399;28;89086;-72
2023/06/29 02:58:19;;;;;;;4.13;2.70;;;23.40;77.10;;;;;;6208071;28;89959;-73
2023/06/29 03:01:21;;;;;;;3.05;2.60;;;23.30;76.90;;;;;;6220586;28;89082;-72
2023/06/29 03:04:23;;;;;;;3.28;2.40;;;23.30;77.00;;;;;;6224069;28;89075;-73
2023/06/29 03:07:24;;;;;;;5.93;3.17;;;23.30;77.00;;;;;;6216529;28;89141;-72
2023/06/29 03:10:26;;;;;;;3.40;2.40;;;23.40;77.00;;;;;;6200510;28;89304;-73
2023/06/29 03:13:30;;;;;;;3.53;2.60;;;23.30;77.00;;;;;;6197878;28;89067;-72
2023/06/29 03:16:32;;;;;;;3.90;2.60;;;23.30;76.70;;;;;;6208681;28;89102;-72
2023/06/29 03:19:34;;;;;;;3.00;2.50;;;23.30;76.60;;;;;;6206475;28;87509;-72
2023/06/29 03:22:36;;;;;;;3.13;2.42;;;23.40;76.60;;;;;;6212393;28;88066;-72
2023/06/29 03:25:38;;;;;;;4.63;2.60;;;23.30;76.40;;;;;;6202832;28;89038;-72
2023/06/29 03:28:42;;;;;;;5.75;3.13;;;23.30;76.40;;;;;;6205591;28;88915;-72
2023/06/29 03:31:44;;;;;;;4.82;2.95;;;23.30;76.30;;;;;;6205815;28;89159;-72
2023/06/29 03:34:45;;;;;;;3.67;2.53;;;23.30;76.30;;;;;;6215092;28;89122;-72
2023/06/29 03:37:47;;;;;;;3.83;2.80;;;23.30;76.30;;;;;;6200340;28;89017;-71
2023/06/29 03:40:49;;;;;;;4.85;2.97;;;23.30;76.30;;;;;;6205194;28;89100;-72
2023/06/29 03:43:53;;;;;;;4.72;2.75;;;23.30;76.30;;;;;;6214026;28;89097;-72
2023/06/29 03:46:55;;;;;;;2.90;2.63;;;23.30;76.30;;;;;;6208514;28;88391;-72
2023/06/29 03:49:57;;;;;;;3.00;2.67;;;23.30;76.30;;;;;;6207635;28;88235;-71
2023/06/29 03:52:59;;;;;;;3.83;2.85;;;23.30;76.40;;;;;;6221472;28;89107;-71
2023/06/29 03:56:01;;;;;;;4.45;3.20;;;23.30;76.40;;;;;;6214811;28;87929;-71
2023/06/29 03:59:04;;;;;;;4.10;3.25;;;23.30;76.60;;;;;;6195759;28;90106;-72
2023/06/29 04:02:06;;;;;;;6.18;3.50;;;23.30;76.60;;;;;;6199561;28;89070;-71
2023/06/29 04:05:09;;;;;;;3.65;3.10;;;23.30;76.70;;;;;;6208252;28;89080;-71
2023/06/29 04:08:11;;;;;;;5.85;4.15;;;23.30;76.80;;;;;;6204802;28;89032;-72
2023/06/29 04:11:14;;;;;;;4.25;3.47;;;23.20;76.70;;;;;;6201143;28;89407;-72
2023/06/29 04:14:17;;;;;;;3.63;3.20;;;23.30;76.90;;;;;;6193403;28;89346;-71
2023/06/29 04:17:19;;;;;;;4.18;2.92;;;23.30;77.10;;;;;;6204916;28;89111;-72
2023/06/29 04:20:21;;;;;;;6.13;3.20;;;23.30;77.20;;;;;;6193254;28;88324;-72
2023/06/29 04:23:23;;;;;;;4.80;3.35;;;23.30;77.30;;;;;;6191316;28;89021;-71
2023/06/29 04:26:27;;;;;;;3.67;3.28;;;23.30;77.40;;;;;;6191121;28;89225;-72
2023/06/29 04:29:31;;;;;;;5.30;3.10;;;23.30;77.50;;;;;;6206569;28;90224;-72
2023/06/29 04:32:33;;;;;;;4.55;3.50;;;23.20;77.50;;;;;;6203601;28;89065;-71
2023/06/29 04:35:35;;;;;;;3.33;3.03;;;23.20;77.60;;;;;;6219273;28;87932;-72
2023/06/29 04:38:37;;;;;;;3.25;2.95;;;23.30;77.70;;;;;;6182269;28;94172;-72
2023/06/29 04:41:40;;;;;;;5.05;3.35;;;23.20;77.70;;;;;;6192748;28;88042;-73
2023/06/29 04:44:45;;;;;;;3.70;3.25;;;23.20;77.80;;;;;;6187486;28;88688;-72
2023/06/29 04:47:49;;;;;;;3.78;2.90;;;23.20;77.90;;;;;;6207125;28;89144;-73
2023/06/29 04:50:51;;;;;;;4.28;3.13;;;23.20;77.90;;;;;;6196668;28;88367;-73
2023/06/29 04:53:53;;;;;;;4.95;3.00;;;23.20;77.90;;;;;;6191542;28;89099;-73
2023/06/29 04:56:56;;;;;;;6.13;2.90;;;23.20;78.00;;;;;;6197688;28;87911;-73
2023/06/29 04:59:59;;;;;;;4.65;3.00;;;23.30;78.10;;;;;;6214461;28;88813;-73
2023/06/29 05:03:01;;;;;;;6.07;3.30;;;23.20;78.00;;;;;;6194529;28;89050;-72
2023/06/29 05:06:03;;;;;;;4.78;3.55;;;23.30;78.30;;;;;;6208073;28;89244;-73
2023/06/29 05:09:05;;;;;;;5.22;3.85;;;23.30;78.40;;;;;;6197439;28;89151;-73
2023/06/29 05:12:09;;;;;;;5.00;3.63;;;23.30;78.60;;;;;;6202655;28;88397;-73
2023/06/29 05:15:12;;;;;;;6.63;3.95;;;23.30;78.60;;;;;;6201196;28;88008;-72
2023/06/29 05:18:15;;;;;;;4.72;3.80;;;23.30;78.80;;;;;;6188290;28;89159;-72
2023/06/29 05:21:17;;;;;;;5.55;4.00;;;23.50;78.90;;;;;;6195768;28;87200;-72
2023/06/29 05:24:20;;;;;;;5.93;4.20;;;23.30;78.80;;;;;;6200096;28;89338;-72
2023/06/29 05:27:22;;;;;;;4.95;4.00;;;23.30;78.80;;;;;;6197029;28;89188;-73
2023/06/29 05:30:26;;;;;;;6.57;4.30;;;23.30;78.80;;;;;;6194573;28;90044;-72
2023/06/29 05:33:28;;;;;;;4.68;4.20;;;23.40;78.90;;;;;;6199724;28;89420;-73
2023/06/29 05:36:30;;;;;;;5.15;3.90;;;23.30;78.80;;;;;;6187622;28;88663;-73
2023/06/29 05:39:32;;;;;;;5.10;4.55;;;23.30;78.80;;;;;;6195071;28;89085;-73
2023/06/29 05:42:34;;;;;;;5.13;4.18;;;23.40;78.80;;;;;;6193681;28;89164;-73
2023/06/29 05:45:39;;;;;;;4.97;4.47;;;23.40;78.80;;;;;;6225117;28;89017;-73
2023/06/29 05:48:41;;;;;;;6.53;4.80;;;23.40;78.80;;;;;;6195931;28;89300;-73
2023/06/29 05:51:43;;;;;;;5.78;4.75;;;23.40;78.80;;;;;;6195021;28;88342;-73
2023/06/29 05:54:45;;;;;;;4.90;4.40;;;23.40;78.80;;;;;;6194040;28;88797;-73
2023/06/29 05:57:48;;;;;;;4.38;3.97;;;23.40;79.80;;;;;;6205304;28;89094;-73
2023/06/29 06:00:51;;;;;;;4.85;4.32;;;23.40;78.80;;;;;;6202599;28;90067;-72
2023/06/29 06:03:54;;;;;;;5.18;4.13;;;23.40;78.80;;;;;;6203541;28;89598;-73
2023/06/29 06:06:56;;;;;;;5.03;4.40;;;23.40;78.80;;;;;;6207002;28;89112;-72
2023/06/29 06:09:58;;;;;;;4.82;4.43;;;23.40;78.80;;;;;;6203272;28;89866;-73
2023/06/29 06:13:02;;;;;;;8.30;5.13;;;23.40;78.90;;;;;;6196725;28;89267;-72
2023/06/29 06:16:06;;;;;;;6.18;5.20;;;23.40;78.90;;;;;;6196365;28;89060;-73
2023/06/29 06:19:08;;;;;;;5.07;4.40;;;23.40;78.90;;;;;;6201187;28;89027;-73
2023/06/29 06:22:10;;;;;;;5.45;4.90;;;23.40;78.90;;;;;;6198057;28;88337;-73
2023/06/29 06:25:14;;;;;;;5.20;4.70;;;23.40;79.00;;;;;;6193767;28;87926;-72
2023/06/29 06:28:16;;;;;;;5.88;4.80;;;23.50;79.10;;;;;;6209020;28;89188;-72
2023/06/29 06:31:19;;;;;;;5.82;5.00;;;23.50;79.10;;;;;;6195284;28;89937;-72
2023/06/29 06:34:22;;;;;;;5.30;4.80;;;23.40;79.00;;;;;;6214287;28;89063;-73
2023/06/29 06:37:24;;;;;;;5.47;4.97;;;23.40;79.10;;;;;;6204306;28;89634;-72
2023/06/29 06:40:25;;;;;;;6.20;5.05;;;23.50;79.10;;;;;;6203952;28;89706;-73
2023/06/29 06:43:27;;;;;;;5.88;5.28;;;23.50;79.10;;;;;;6208529;28;89038;-73
2023/06/29 06:46:31;;;;;;;5.40;4.85;;;23.50;79.30;;;;;;6204937;28;87893;-73
2023/06/29 06:49:33;;;;;;;5.50;4.90;;;23.50;79.30;;;;;;6208770;28;89055;-73
2023/06/29 06:52:36;;;;;;;5.28;4.78;;;23.50;79.20;;;;;;6202579;28;88410;-72
2023/06/29 06:55:37;;;;;;;6.60;5.13;;;23.50;79.20;;;;;;6212805;28;89050;-72
2023/06/29 06:58:39;;;;;;;5.53;5.03;;;23.50;79.30;;;;;;6207339;28;89397;-73
2023/06/29 07:01:43;;;;;;;6.03;4.88;;;23.50;79.30;;;;;;6197288;28;89958;-72
2023/06/29 07:04:45;;;;;;;6.90;4.95;;;23.50;79.30;;;;;;6205704;28;89141;-72
2023/06/29 07:07:51;;;;;;;4.93;4.43;;;23.50;79.30;;;;;;6223113;28;87981;-73
2023/06/29 07:10:53;;;;;;;5.70;4.45;;;23.50;79.30;;;;;;6220228;28;89003;-72
2023/06/29 07:13:55;;;;;;;5.45;4.22;;;23.50;79.30;;;;;;6221516;28;88921;-72
2023/06/29 07:16:59;;;;;;;4.85;4.35;;;23.50;79.30;;;;;;6210223;28;89087;-71
2023/06/29 07:20:01;;;;;;;4.70;4.30;;;23.50;79.40;;;;;;6200079;28;89094;-72
2023/06/29 07:23:03;;;;;;;5.20;4.40;;;23.50;79.40;;;;;;6196687;28;87192;-73
2023/06/29 07:26:08;;;;;;;5.22;4.72;;;23.50;79.40;;;;;;6195853;28;89026;-73
2023/06/29 07:29:10;;;;;;;5.05;4.63;;;23.50;80.00;;;;;;6216729;28;89120;-72
2023/06/29 07:32:13;;;;;;;4.57;4.18;;;23.50;79.80;;;;;;6193738;28;90061;-73
2023/06/29 07:35:15;;;;;;;5.60;4.35;;;23.50;79.80;;;;;;6191389;28;89151;-72
2023/06/29 07:38:17;;;;;;;5.35;4.60;;;23.50;79.90;;;;;;6206355;28;89086;-72
2023/06/29 07:41:20;;;;;;;4.53;4.10;;;23.50;79.80;;;;;;6207039;28;89150;-73
2023/06/29 07:44:22;;;;;;;5.00;4.53;;;23.50;79.60;;;;;;6204752;28;87921;-73
2023/06/29 07:47:26;;;;;;;5.43;4.65;;;23.60;79.60;;;;;;6203041;28;89128;-73
2023/06/29 07:50:28;;;;;;;4.85;4.30;;;23.50;79.60;;;;;;6190320;28;89093;-73
2023/06/29 07:53:30;;;;;;;5.43;4.57;;;23.60;79.60;;;;;;6198501;28;88350;-72
2023/06/29 07:56:33;;;;;;;4.40;4.00;;;23.50;79.60;;;;;;6196824;28;89284;-73
2023/06/29 07:59:35;;;;;;;4.63;4.20;;;23.60;79.80;;;;;;6214530;28;88888;-71
2023/06/29 08:02:38;;;;;;;4.60;4.20;;;23.50;79.80;;;;;;6193740;28;90682;-72
2023/06/29 08:05:40;;;;;;;4.60;4.20;;;23.50;79.80;;;;;;6199762;28;89389;-73
2023/06/29 08:08:42;;;;;;;5.00;4.43;;;23.50;79.80;;;;;;6213629;28;89407;-72
2023/06/29 08:11:44;;;;;;;4.75;4.35;;;23.50;80.00;;;;;;6219319;28;88051;-72
2023/06/29 08:14:46;;;;;;;4.60;4.20;;;23.50;80.00;;;;;;6206456;28;88019;-72
2023/06/29 08:17:50;;;;;;;5.68;4.68;;;23.50;80.00;;;;;;6213830;28;89077;-71
2023/06/29 08:20:52;;;;;;;4.57;4.18;;;23.50;80.10;;;;;;6217376;28;89070;-73
2023/06/29 08:23:54;;;;;;;7.00;5.18;;;23.50;80.30;;;;;;6207707;28;88390;-72
2023/06/29 08:26:55;;;;;;;5.30;4.50;;;23.60;80.40;;;;;;6207523;28;89091;-73
2023/06/29 08:29:57;;;;;;;4.80;4.05;;;23.50;80.30;;;;;;6194384;28;88515;-72
2023/06/29 08:33:02;;;;;;;4.53;4.13;;;23.60;80.30;;;;;;6189247;28;90092;-73
2023/06/29 08:36:05;;;;;;;4.60;4.20;;;23.50;80.30;;;;;;6182608;28;89476;-72
2023/06/29 08:39:08;;;;;;;4.95;4.30;;;23.50;80.30;;;;;;6202757;28;89120;-73
2023/06/29 08:42:10;;;;;;;4.80;4.30;;;23.50;80.10;;;;;;6199640;28;89071;-73
2023/06/29 08:45:12;;;;;;;4.88;4.40;;;23.50;80.10;;;;;;6207205;28;89406;-73
2023/06/29 08:48:18;;;;;;;4.63;4.15;;;23.50;80.20;;;;;;6201785;28;89108;-72
2023/06/29 08:51:22;;;;;;;5.47;4.47;;;23.60;80.30;;;;;;6206118;28;89055;-73
2023/06/29 08:54:25;;;;;;;4.47;4.07;;;23.60;80.30;;;;;;6203574;28;88412;-72
2023/06/29 08:57:28;;;;;;;4.50;4.10;;;23.60;80.40;;;;;;6189378;28;88748;-73
2023/06/29 09:00:30;;;;;;;4.50;4.07;;;23.50;80.30;;;;;;6208795;28;89128;-73
2023/06/29 09:03:35;;;;;;;4.47;4.07;;;23.50;80.50;;;;;;6190770;28;90075;-73
2023/06/29 09:06:37;;;;;;;4.60;4.20;;;23.50;80.50;;;;;;6205669;28;90036;-72
2023/06/29 09:09:39;;;;;;;5.25;4.40;;;23.60;80.50;;;;;;6191261;28;89031;-73
2023/06/29 09:12:41;;;;;;;4.18;3.78;;;23.50;80.60;;;;;;6185504;28;89118;-73
2023/06/29 09:15:43;;;;;;;4.32;3.92;;;23.60;80.60;;;;;;6218022;28;91762;-72
2023/06/29 09:18:53;;;;;;;4.22;3.85;;;23.60;80.60;;;;;;6208422;28;89029;-73
2023/06/29 09:21:57;;;;;;;4.85;4.05;;;23.50;80.60;;;;;;6201998;28;87982;-73
2023/06/29 09:25:00;;;;;;;4.30;3.90;;;23.60;80.70;;;;;;6193741;28;89543;-72
2023/06/29 09:28:03;;;;;;;4.35;3.95;;;23.60;80.60;;;;;;6186703;28;89766;-73
2023/06/29 09:31:09;;;;;;;4.72;4.32;;;23.50;80.60;;;;;;6200905;28;89516;-72
2023/06/29 09:34:19;;;;;;;4.15;3.78;;;23.60;80.60;;;;;;6210892;28;90002;-73
2023/06/29 09:37:21;;;;;;;4.28;3.80;;;23.60;80.60;;;;;;6197645;28;88994;-73
2023/06/29 09:40:23;;;;;;;4.40;4.00;;;23.60;80.60;;;;;;6219806;28;89126;-72
2023/06/29 09:43:28;;;;;;;4.53;4.13;;;23.60;80.60;;;;;;6209098;28;89075;-73
2023/06/29 09:46:30;;;;;;;5.53;4.47;;;23.60;80.60;;;;;;6202353;28;89433;-73
2023/06/29 09:49:44;;;;;;;4.10;3.70;;;23.50;80.60;;;;;;6222813;28;89069;-72
2023/06/29 09:52:48;;;;;;;4.47;4.07;;;23.50;80.60;;;;;;6221877;28;88998;-72
2023/06/29 09:55:51;;;;;;;4.32;3.92;;;23.50;80.60;;;;;;6199342;28;88359;-73
2023/06/29 09:58:53;;;;;;;4.57;4.00;;;23.60;80.60;;;;;;6216402;28;89183;-72
2023/06/29 10:01:55;;;;;;;4.63;3.90;;;23.60;80.60;;;;;;6206023;28;87667;-73
2023/06/29 10:04:58;;;;;;;5.65;4.30;;;23.60;80.70;;;;;;6205744;28;90033;-73
2023/06/29 10:08:04;;;;;;;4.43;4.00;;;23.60;80.80;;;;;;6222403;28;89507;-72
2023/06/29 10:11:06;;;;;;;4.68;4.18;;;23.50;80.70;;;;;;6202721;28;89248;-73
2023/06/29 10:14:10;;;;;;;4.13;3.72;;;23.60;80.90;;;;;;6223247;28;89093;-72
2023/06/29 10:17:17;;;;;;;4.25;3.85;;;23.60;80.80;;;;;;6215159;28;89614;-72
2023/06/29 10:20:25;;;;;;;4.15;3.75;;;23.60;80.80;;;;;;6203675;28;88021;-73
2023/06/29 10:23:28;;;;;;;3.92;3.53;;;23.60;80.80;;;;;;6208761;28;88165;-72
2023/06/29 10:26:30;;;;;;;4.03;3.63;;;23.60;80.80;;;;;;6226757;28;88341;-73
2023/06/29 10:29:42;;;;;;;4.18;3.78;;;23.60;80.70;;;;;;6203808;28;89099;-72
2023/06/29 10:32:49;;;;;;;4.25;3.85;;;23.60;80.70;;;;;;6200787;28;89061;-73
2023/06/29 10:35:58;;;;;;;4.07;3.67;;;23.60;80.80;;;;;;6197646;28;90373;-73
2023/06/29 10:39:00;;;;;;;4.15;3.80;;;23.60;80.80;;;;;;6205877;28;89093;-72
2023/06/29 10:42:02;;;;;;;4.20;3.80;;;23.60;80.80;;;;;;6206016;28;89158;-73
2023/06/29 10:45:26;;;;;;;3.80;3.50;;;23.60;80.80;;;;;;6200980;28;88035;-73
2023/06/29 10:48:28;;;;;;;3.83;3.53;;;23.60;80.80;;;;;;6212472;28;89142;-73
2023/06/29 10:51:32;;;;;;;3.63;3.33;;;23.60;80.80;;;;;;6220184;28;89136;-73
2023/06/29 10:54:34;;;;;;;3.97;3.58;;;23.60;80.80;;;;;;6217365;28;89092;-73
2023/06/29 10:57:36;;;;;;;3.83;3.50;;;23.60;80.80;;;;;;6206647;28;88330;-73
2023/06/29 11:00:37;;;;;;;3.75;3.45;;;23.60;80.80;;;;;;6227743;28;89177;-72
2023/06/29 11:03:40;;;;;;;4.03;3.60;;;23.60;80.90;;;;;;6203141;28;89085;-73
2023/06/29 11:06:44;;;;;;;3.90;3.60;;;23.60;80.90;;;;;;6194350;28;90172;-72
2023/06/29 11:09:46;;;;;;;7.60;4.82;;;23.60;80.90;;;;;;6208616;28;89004;-73
2023/06/29 11:12:50;;;;;;;3.90;3.58;;;23.60;80.80;;;;;;6208119;28;87944;-73
2023/06/29 11:15:57;;;;;;;3.72;3.42;;;23.60;80.80;;;;;;6205957;28;88921;-73
2023/06/29 11:19:01;;;;;;;3.42;3.13;;;23.60;80.80;;;;;;6194208;28;88851;-73
2023/06/29 11:22:05;;;;;;;3.55;3.25;;;23.60;80.80;;;;;;6207085;28;87865;-74
2023/06/29 11:25:08;;;;;;;4.00;3.60;;;23.60;80.70;;;;;;6196012;28;89074;-73
2023/06/29 11:28:10;;;;;;;4.13;3.72;;;23.60;80.70;;;;;;6195259;28;88677;-73
2023/06/29 11:31:12;;;;;;;3.55;3.25;;;23.60;81.60;;;;;;6186701;28;89163;-73
2023/06/29 11:34:14;;;;;;;3.80;3.50;;;23.60;80.70;;;;;;6191600;28;89171;-73
2023/06/29 11:37:21;;;;;;;3.70;3.40;;;23.60;80.70;;;;;;6195881;28;90002;-73
2023/06/29 11:40:24;;;;;;;3.58;3.28;;;23.60;80.80;;;;;;6204165;28;89173;-73
2023/06/29 11:43:26;;;;;;;4.07;3.67;;;23.60;80.80;;;;;;6190548;28;89112;-74
2023/06/29 11:46:28;;;;;;;4.15;3.60;;;23.60;80.80;;;;;;6204478;28;89094;-74
2023/06/29 11:49:32;;;;;;;3.90;3.53;;;23.60;80.80;;;;;;6192698;28;89068;-72
2023/06/29 11:52:36;;;;;;;3.85;3.55;;;23.60;81.00;;;;;;6216209;28;89108;-73
2023/06/29 11:55:38;;;;;;;3.70;3.40;;;23.60;80.80;;;;;;6202389;28;88082;-72
2023/06/29 11:58:44;;;;;;;3.58;3.28;;;23.60;80.80;;;;;;6188427;28;88374;-73
2023/06/29 12:01:46;;;;;;;3.85;3.45;;;23.60;80.80;;;;;;6216895;28;89439;-72
2023/06/29 12:04:56;;;;;;;5.40;3.92;;;23.60;80.80;;;;;;6214877;28;89225;-73
2023/06/29 12:08:05;;;;;;;4.93;3.88;;;23.60;81.60;;;;;;6205465;28;89982;-73
2023/06/29 12:11:14;;;;;;;3.60;3.30;;;23.60;80.70;;;;;;6219817;28;89004;-73
2023/06/29 12:14:16;;;;;;;3.60;3.30;;;23.60;80.70;;;;;;6195840;28;87987;-73
2023/06/29 12:17:22;;;;;;;3.63;3.33;;;23.60;80.70;;;;;;6205174;28;89122;-73
2023/06/29 12:20:24;;;;;;;3.70;3.40;;;23.60;80.70;;;;;;6206762;28;89108;-73
2023/06/29 12:23:28;;;;;;;3.72;3.33;;;23.60;80.70;;;;;;6204618;28;88290;-73
2023/06/29 12:26:30;;;;;;;3.75;3.40;;;23.70;80.80;;;;;;6194099;28;87827;-73
2023/06/29 12:29:32;;;;;;;3.53;3.22;;;23.60;80.60;;;;;;6207134;28;88328;-72
2023/06/29 12:32:34;;;;;;;3.90;3.47;;;23.60;80.70;;;;;;6200844;28;88989;-73
2023/06/29 12:35:36;;;;;;;3.72;3.25;;;23.70;80.80;;;;;;6209680;28;89394;-73
2023/06/29 12:38:39;;;;;;;3.65;3.35;;;23.60;80.60;;;;;;6200767;28;89965;-73
2023/06/29 12:41:41;;;;;;;3.58;3.28;;;23.60;80.60;;;;;;6198053;28;89099;-73
2023/06/29 12:44:43;;;;;;;4.70;3.75;;;23.60;81.50;;;;;;6204901;28;89084;-73
2023/06/29 12:47:45;;;;;;;3.63;3.28;;;23.60;80.60;;;;;;6195585;28;89049;-72
2023/06/29 12:50:47;;;;;;;3.65;3.25;;;23.70;81.60;;;;;;6203813;28;89090;-72
2023/06/29 12:53:50;;;;;;;3.20;2.90;;;23.60;80.60;;;;;;6191666;28;89091;-73
2023/06/29 12:56:52;;;;;;;3.40;3.10;;;23.60;80.50;;;;;;6190032;28;89493;-73
2023/06/29 12:59:55;;;;;;;3.15;2.85;;;23.70;80.60;;;;;;6206368;28;88366;-72
2023/06/29 13:02:57;;;;;;;4.10;3.40;;;23.60;80.50;;;;;;6208225;28;89065;-72
2023/06/29 13:05:59;;;;;;;3.38;3.08;;;23.60;80.50;;;;;;6204796;28;88998;-73
2023/06/29 13:09:02;;;;;;;3.20;2.95;;;23.60;80.40;;;;;;6193740;28;89221;-73
2023/06/29 13:12:05;;;;;;;3.30;3.00;;;23.60;80.50;;;;;;6192020;28;89080;-73
2023/06/29 13:15:08;;;;;;;3.30;3.00;;;23.60;80.40;;;;;;6197116;28;89081;-73
2023/06/29 13:18:10;;;;;;;3.60;3.30;;;23.60;80.40;;;;;;6185702;28;89523;-72
2023/06/29 13:21:12;;;;;;;3.60;3.20;;;23.60;80.40;;;;;;6197341;28;89036;-73
2023/06/29 13:24:15;;;;;;;3.33;3.03;;;23.60;80.30;;;;;;6204978;28;88017;-73
2023/06/29 13:27:17;;;;;;;3.80;2.90;;;23.60;80.30;;;;;;6209669;28;88968;-74
2023/06/29 13:30:19;;;;;;;4.10;3.40;;;23.60;80.30;;;;;;6199071;28;88459;-72
2023/06/29 13:33:21;;;;;;;3.55;2.97;;;23.70;80.40;;;;;;6192425;28;89235;-73
2023/06/29 13:36:23;;;;;;;2.92;2.72;;;23.60;80.30;;;;;;6218534;28;89074;-73
2023/06/29 13:39:27;;;;;;;3.30;3.00;;;23.60;80.40;;;;;;6217408;28;90047;-73
2023/06/29 13:42:29;;;;;;;3.40;3.10;;;23.60;80.40;;;;;;6192078;28;89462;-73
2023/06/29 13:45:31;;;;;;;3.75;3.38;;;23.70;80.50;;;;;;6202016;28;89019;-73
2023/06/29 13:48:33;;;;;;;3.33;3.03;;;23.60;80.40;;;;;;6192242;28;88959;-73
2023/06/29 13:51:36;;;;;;;3.50;3.20;;;23.60;80.30;;;;;;6215814;28;89338;-73
2023/06/29 13:54:39;;;;;;;3.05;2.83;;;23.70;80.40;;;;;;6205510;28;89084;-73
2023/06/29 13:57:41;;;;;;;3.85;3.03;;;23.70;80.30;;;;;;6184604;28;89462;-74
2023/06/29 14:00:43;;;;;;;3.35;3.05;;;23.70;80.30;;;;;;6214977;28;87793;-73
2023/06/29 14:03:47;;;;;;;3.50;2.88;;;23.60;80.20;;;;;;6210203;28;87990;-74
2023/06/29 14:06:49;;;;;;;3.33;3.03;;;23.70;80.20;;;;;;6190892;28;89220;-74
2023/06/29 14:09:53;;;;;;;3.60;3.10;;;23.70;80.20;;;;;;6215365;28;90362;-73
2023/06/29 14:12:55;;;;;;;3.53;3.10;;;23.70;80.20;;;;;;6193808;28;89118;-73
2023/06/29 14:15:57;;;;;;;3.42;3.08;;;23.70;80.20;;;;;;6205808;28;89167;-73
2023/06/29 14:19:00;;;;;;;3.25;2.95;;;23.60;80.10;;;;;;6204085;28;89009;-74
2023/06/29 14:22:02;;;;;;;3.38;3.03;;;23.70;80.20;;;;;;6195814;28;89535;-74
2023/06/29 14:25:07;;;;;;;3.42;3.13;;;23.70;80.10;;;;;;6191999;28;89009;-73
2023/06/29 14:28:09;;;;;;;3.38;3.08;;;23.60;80.10;;;;;;6197901;28;89902;-74
2023/06/29 14:31:11;;;;;;;3.67;3.30;;;23.70;80.10;;;;;;6186216;28;88307;-73
2023/06/29 14:34:13;;;;;;;3.40;3.10;;;23.70;80.20;;;;;;6197256;28;87967;-74
2023/06/29 14:37:15;;;;;;;2.88;2.67;;;23.70;80.10;;;;;;6202229;28;89146;-74
2023/06/29 14:40:18;;;;;;;3.53;3.03;;;23.70;80.20;;;;;;6200146;28;89999;-74
2023/06/29 14:43:20;;;;;;;3.00;2.70;;;23.70;80.20;;;;;;6188875;28;88060;-74
2023/06/29 14:46:22;;;;;;;4.07;3.40;;;23.70;80.20;;;;;;6208783;28;89366;-74
2023/06/29 14:49:24;;;;;;;3.70;2.97;;;23.70;80.20;;;;;;6209534;28;89028;-74
2023/06/29 14:52:26;;;;;;;3.13;2.83;;;23.70;80.10;;;;;;6217267;28;89068;-74
2023/06/29 14:55:30;;;;;;;3.22;2.92;;;23.70;80.10;;;;;;6205712;28;89059;-74
2023/06/29 14:58:32;;;;;;;3.95;3.15;;;23.70;80.10;;;;;;6188059;28;88984;-74
2023/06/29 15:01:34;;;;;;;3.63;2.95;;;23.70;80.10;;;;;;6230475;28;87233;-73
2023/06/29 15:04:36;;;;;;;2.88;2.67;;;23.70;80.10;;;;;;6195957;28;89254;-74
2023/06/29 15:07:38;;;;;;;3.33;2.95;;;23.60;80.00;;;;;;6219851;28;89013;-74
2023/06/29 15:10:41;;;;;;;3.13;2.88;;;23.70;80.10;;;;;;6185927;28;90042;-74
2023/06/29 15:13:43;;;;;;;3.42;2.95;;;23.70;80.00;;;;;;6192412;28;89074;-74
2023/06/29 15:16:45;;;;;;;3.28;2.97;;;23.70;80.00;;;;;;6190157;28;89330;-73
2023/06/29 15:19:47;;;;;;;3.13;2.80;;;23.70;79.90;;;;;;6197469;28;89081;-74
2023/06/29 15:22:49;;;;;;;3.45;3.15;;;23.70;79.90;;;;;;6197888;28;89086;-74
2023/06/29 15:25:52;;;;;;;3.08;2.78;;;23.70;80.00;;;;;;6200514;28;89449;-73
2023/06/29 15:28:54;;;;;;;3.35;2.88;;;23.70;79.90;;;;;;6187944;28;89446;-73
2023/06/29 15:31:56;;;;;;;4.32;3.30;;;23.70;79.80;;;;;;6197240;28;88565;-72
2023/06/29 15:34:58;;;;;;;3.30;3.00;;;23.70;80.00;;;;;;6198439;28;90652;-73
2023/06/29 15:38:00;;;;;;;3.00;2.70;;;23.70;80.00;;;;;;6195519;28;89193;-73
2023/06/29 15:41:04;;;;;;;3.78;2.78;;;23.70;79.80;;;;;;6206106;28;89952;-74
2023/06/29 15:44:06;;;;;;;3.28;3.05;;;23.70;79.80;;;;;;6207400;28;88368;-73
2023/06/29 15:47:08;;;;;;;3.40;3.10;;;23.70;79.70;;;;;;6208005;28;89065;-74
2023/06/29 15:50:10;;;;;;;3.70;3.40;;;23.70;79.70;;;;;;6198469;28;89069;-74
2023/06/29 15:53:12;;;;;;;3.70;3.40;;;23.70;79.60;;;;;;6214053;28;89123;-73